Wallace, South Dakota
Current Conditions -  °F | °C
As of 5:53 PM on Saturday 25 Oct 2014 (Local Time) from KATY Reporting Station
Clear Clear  
Wind Chill: 57°   Ceiling: Unl
Heat Index: 57°   Visibility: 10mi
Dew Point: 31°   Wind: 6mph
Humidity: 37%   Direction: 20°NNE
Pressure: 30.09"   Gusts: NA
Location:  45.09°N, 97.48°W
Report Text: KATY 252253Z AUTO 02005KT 10SM CLR 14/M01 A3009 RMK AO2 SLP193 T01391006 $
Loading
Personal Weather Stations






























Interactive Weather Map
Tropical Storm Tracking
New forecast layout! Learn more

10-Day Weather Forecast

Advertisements
Track Severe Weather on mobile